createdAt,value
2019-04-11T00:01:35.792Z,99.90
2019-04-11T00:03:56.429Z,99.90
2019-04-11T00:06:25.660Z,99.90
2019-04-11T00:08:54.773Z,99.90
2019-04-11T00:11:24.009Z,99.90
2019-04-11T00:13:53.617Z,99.90
2019-04-11T00:16:23.461Z,99.90
2019-04-11T00:18:52.473Z,99.90
2019-04-11T00:21:22.414Z,99.90
2019-04-11T00:23:51.617Z,99.90
2019-04-11T00:26:20.605Z,99.90
2019-04-11T00:28:50.071Z,99.90
2019-04-11T00:31:19.254Z,99.90
2019-04-11T00:33:48.740Z,99.90
2019-04-11T00:36:17.805Z,99.90
2019-04-11T00:38:47.831Z,99.90
2019-04-11T00:41:17.558Z,99.90
2019-04-11T00:43:46.889Z,99.90
2019-04-11T00:46:16.255Z,99.90
2019-04-11T00:48:46.073Z,99.90
2019-04-11T00:51:16.139Z,99.90
2019-04-11T00:53:46.548Z,99.90
2019-04-11T00:56:15.829Z,99.90
2019-04-11T00:58:45.682Z,99.90
2019-04-11T01:01:15.659Z,99.90
2019-04-11T03:12:49.438Z,99.90
2019-04-11T03:15:31.677Z,99.90
2019-04-11T03:17:54.921Z,99.90
2019-04-11T03:20:29.072Z,99.90
2019-04-11T03:22:57.226Z,99.90
2019-04-11T03:25:22.657Z,99.90
2019-04-11T03:27:53.745Z,99.90
2019-04-11T03:30:34.953Z,99.90
2019-04-11T03:33:54.541Z,99.90
2019-04-11T03:38:21.428Z,99.90
2019-04-11T03:40:48.194Z,99.90
2019-04-11T03:43:10.705Z,99.90
2019-04-11T03:45:48.336Z,99.90
2019-04-11T03:48:12.349Z,99.90
2019-04-11T03:50:32.321Z,99.90
2019-04-11T03:53:02.272Z,99.90
2019-04-11T03:55:32.439Z,99.90
2019-04-11T03:58:01.763Z,99.90
2019-04-11T04:00:35.950Z,99.90
2019-04-11T04:03:03.977Z,99.90
2019-04-11T04:05:36.300Z,99.90
2019-04-11T04:08:05.989Z,99.90
2019-04-11T04:10:36.569Z,99.90
2019-04-11T04:13:11.372Z,99.90
2019-04-11T04:15:59.694Z,99.90
2019-04-11T04:18:36.248Z,99.90
2019-04-11T04:21:17.542Z,99.90
2019-04-11T04:23:49.704Z,99.90
2019-04-11T04:26:19.685Z,99.90
2019-04-11T04:28:49.102Z,99.90
2019-04-11T04:31:18.548Z,99.90
2019-04-11T04:33:48.168Z,99.90
2019-04-11T04:36:18.232Z,99.90
2019-04-11T04:38:48.779Z,99.90
2019-04-11T04:41:30.203Z,99.90
2019-04-11T04:43:50.660Z,99.90
2019-04-11T04:46:34.820Z,99.90
2019-04-11T04:48:51.516Z,99.90
2019-04-11T04:51:24.119Z,99.90
2019-04-11T04:53:52.148Z,99.90
2019-04-11T04:56:26.032Z,99.90
2019-04-11T04:58:53.957Z,99.90
2019-04-11T05:01:23.781Z,99.90
2019-04-11T05:03:53.977Z,99.90
2019-04-11T05:06:24.149Z,99.90
2019-04-11T05:08:53.369Z,99.90
2019-04-11T05:11:23.156Z,99.90
2019-04-11T05:13:52.448Z,99.90
2019-04-11T05:16:21.367Z,99.90
2019-04-11T05:18:50.523Z,99.90
2019-04-11T05:21:19.738Z,99.90
2019-04-11T05:23:48.702Z,99.90
2019-04-11T05:26:17.513Z,99.90
2019-04-11T05:28:46.615Z,99.90
2019-04-11T05:31:16.426Z,99.90
2019-04-11T05:33:45.682Z,99.90
2019-04-11T05:36:14.672Z,99.90
2019-04-11T05:38:44.260Z,99.90
2019-04-11T05:41:13.824Z,99.90
2019-04-11T05:43:43.116Z,99.90
2019-04-11T05:46:26.437Z,99.90
2019-04-11T05:48:50.660Z,99.90
2019-04-11T05:51:22.373Z,99.90
2019-04-11T05:53:54.447Z,99.90
2019-04-11T05:56:28.374Z,99.90
2019-04-11T05:59:01.721Z,99.90
2019-04-11T06:01:36.350Z,99.90
2019-04-11T06:04:13.148Z,99.90
2019-04-11T06:07:00.430Z,99.90
2019-04-11T06:09:35.264Z,99.90
2019-04-11T06:12:23.847Z,99.90
2019-04-11T06:14:59.639Z,99.90
2019-04-11T06:17:30.137Z,99.90
2019-04-11T06:20:17.779Z,99.90
2019-04-11T06:23:06.687Z,99.90
2019-04-11T06:26:10.920Z,99.90
2019-04-11T06:28:39.794Z,99.90
2019-04-11T06:31:40.398Z,99.90
2019-04-11T06:34:09.623Z,99.90
2019-04-11T06:36:55.424Z,99.90
2019-04-11T06:39:29.494Z,99.90
2019-04-11T06:42:05.749Z,99.90
2019-04-11T06:44:50.142Z,99.90
2019-04-11T06:47:51.345Z,99.90
2019-04-11T06:50:39.330Z,99.90
2019-04-11T06:53:09.634Z,99.90
2019-04-11T06:55:57.342Z,99.90
2019-04-11T06:58:31.828Z,99.90
2019-04-11T07:01:08.093Z,99.50
2019-04-11T07:03:42.210Z,97.20
2019-04-11T07:06:17.762Z,96.20
2019-04-11T07:08:54.693Z,96.50
2019-04-11T07:11:28.909Z,93.70
2019-04-11T07:14:18.208Z,89.70
2019-04-11T07:17:13.750Z,89.00
2019-04-11T07:20:08.674Z,86.60
2019-04-11T07:22:55.617Z,84.60
2019-04-11T07:25:37.667Z,85.00
2019-04-11T07:28:14.471Z,86.00
2019-04-11T07:31:02.328Z,78.70
2019-04-11T07:33:51.787Z,80.60
2019-04-11T07:36:38.860Z,78.70
2019-04-11T07:39:28.796Z,75.00
2019-04-11T07:42:21.202Z,75.30
2019-04-11T07:44:55.593Z,69.90
2019-04-11T07:47:38.247Z,65.30
2019-04-11T07:50:07.934Z,65.90
2019-04-11T07:52:44.876Z,66.40
2019-04-11T07:55:14.317Z,61.50
2019-04-11T07:57:48.958Z,62.00
2019-04-11T08:00:40.933Z,61.70
2019-04-11T08:03:36.507Z,61.20
2019-04-11T08:06:31.045Z,61.50
2019-04-11T08:09:31.430Z,60.10
2019-04-11T08:12:08.725Z,57.80
2019-04-11T08:14:59.946Z,58.00
2019-04-11T08:17:37.652Z,55.80
2019-04-11T08:20:21.777Z,55.40
2019-04-11T08:23:03.540Z,55.80
2019-04-11T08:25:50.601Z,54.20
2019-04-11T08:28:20.553Z,54.10
2019-04-11T08:31:15.158Z,53.00
2019-04-11T08:33:44.688Z,55.10
2019-04-11T08:36:48.935Z,50.50
2019-04-11T08:39:22.855Z,50.70
2019-04-11T08:42:09.864Z,50.40
2019-04-11T08:44:41.869Z,49.30
2019-04-11T08:47:16.323Z,48.90
2019-04-11T08:49:48.245Z,48.80
2019-04-11T08:52:34.049Z,49.70
2019-04-11T08:55:23.079Z,48.10
2019-04-11T08:57:56.570Z,48.80
2019-04-11T09:00:59.313Z,47.50
2019-04-11T09:03:33.593Z,47.20
2019-04-11T09:06:12.556Z,48.00
2019-04-11T09:09:00.803Z,48.30
2019-04-11T09:11:41.134Z,48.80
2019-04-11T09:14:41.804Z,49.70
2019-04-11T09:17:16.504Z,48.70
2019-04-11T09:19:59.971Z,45.80
2019-04-11T09:22:35.351Z,45.30
2019-04-11T09:25:30.376Z,44.40
2019-04-11T09:28:25.590Z,44.90
2019-04-11T09:31:14.900Z,43.80
2019-04-11T09:34:01.641Z,42.70
2019-04-11T09:37:05.217Z,43.90
2019-04-11T09:39:39.452Z,43.80
2019-04-11T09:42:30.398Z,41.80
2019-04-11T09:45:17.323Z,40.40
2019-04-11T09:48:19.464Z,41.00
2019-04-11T09:51:07.545Z,40.80
2019-04-11T09:53:37.386Z,41.80
2019-04-11T09:56:37.874Z,42.10
2019-04-11T09:59:12.258Z,40.60
2019-04-11T10:01:56.765Z,39.50
2019-04-11T10:04:26.098Z,39.90
2019-04-11T10:07:13.160Z,40.00
2019-04-11T10:10:02.421Z,40.10
2019-04-11T10:12:49.782Z,39.60
2019-04-11T10:15:21.515Z,41.10
2019-04-11T10:18:19.532Z,37.30
2019-04-11T10:20:40.514Z,41.70
2019-04-11T10:23:20.934Z,41.20
2019-04-11T10:25:53.818Z,38.30
2019-04-11T10:28:43.926Z,41.40
2019-04-11T10:31:18.242Z,42.90
2019-04-11T10:34:06.063Z,42.60
2019-04-11T10:36:57.170Z,45.70
2019-04-11T10:39:53.953Z,44.00
2019-04-11T10:42:24.727Z,41.00
2019-04-11T10:45:15.714Z,38.00
2019-04-11T10:47:45.345Z,38.10
2019-04-11T10:50:34.386Z,37.00
2019-04-11T10:53:04.650Z,38.50
2019-04-11T10:55:46.190Z,36.60
2019-04-11T10:58:20.496Z,37.70
2019-04-11T11:01:07.621Z,37.00
2019-04-11T11:03:51.494Z,36.60
2019-04-11T11:06:23.982Z,37.60
2019-04-11T11:09:08.019Z,37.80
2019-04-11T11:11:42.113Z,37.70
2019-04-11T11:14:22.739Z,36.50
2019-04-11T11:17:38.718Z,40.00
2019-04-11T11:20:26.749Z,37.60
2019-04-11T11:23:14.526Z,37.90
2019-04-11T11:25:51.672Z,34.60
2019-04-11T11:28:23.696Z,34.50
2019-04-11T11:31:18.179Z,34.40
2019-04-11T11:33:47.043Z,35.20
2019-04-11T11:36:37.639Z,33.90
2019-04-11T11:39:13.538Z,35.70
2019-04-11T11:42:00.315Z,36.10
2019-04-11T11:44:35.619Z,37.80
2019-04-11T11:47:38.643Z,38.70
2019-04-11T11:50:10.546Z,40.90
2019-04-11T11:53:08.234Z,38.40
2019-04-11T11:55:37.629Z,38.20
2019-04-11T11:58:25.854Z,36.80
2019-04-11T12:00:57.242Z,34.00
2019-04-11T12:03:52.681Z,35.10
2019-04-11T12:06:23.845Z,36.50
2019-04-11T12:09:12.005Z,35.60
2019-04-11T12:11:43.879Z,36.90
2019-04-11T12:14:30.425Z,36.50
2019-04-11T12:17:14.326Z,36.50
2019-04-11T12:22:24.713Z,40.10
2019-04-11T12:24:58.750Z,37.70
2019-04-11T12:28:04.132Z,36.50
2019-04-11T12:30:42.010Z,37.60
2019-04-11T12:33:37.335Z,38.00
2019-04-11T12:36:20.944Z,38.30
2019-04-11T12:39:12.466Z,36.40
2019-04-11T12:42:02.607Z,41.30
2019-04-11T12:44:50.851Z,38.80
2019-04-11T12:47:44.433Z,39.10
2019-04-11T12:50:32.955Z,40.40
2019-04-11T12:53:03.804Z,39.60
2019-04-11T12:56:04.110Z,54.10
2019-04-11T12:58:55.044Z,55.40
2019-04-11T13:01:47.459Z,54.50
2019-04-11T13:04:33.485Z,55.10
2019-04-11T13:07:33.555Z,57.60
2019-04-11T13:10:20.586Z,66.30
2019-04-11T13:13:11.721Z,73.00
2019-04-11T13:15:42.634Z,57.90
2019-04-11T13:18:33.544Z,60.60
2019-04-11T13:21:17.792Z,62.30
2019-04-11T13:24:11.734Z,58.90
2019-04-11T13:26:59.734Z,58.70
2019-04-11T13:29:46.461Z,59.30
2019-04-11T13:32:33.572Z,59.40
2019-04-11T13:35:08.542Z,58.60
2019-04-11T13:37:55.254Z,58.50
2019-04-11T13:41:02.003Z,57.20
2019-04-11T13:43:51.211Z,58.00
2019-04-11T13:46:48.489Z,59.30
2019-04-11T13:49:55.118Z,60.90
2019-04-11T13:52:38.155Z,60.10
2019-04-11T13:55:24.589Z,64.20
2019-04-11T13:58:12.618Z,60.90
2019-04-11T14:01:09.897Z,59.10
2019-04-11T14:03:57.834Z,59.30
2019-04-11T14:06:28.153Z,61.00
2019-04-11T14:09:25.309Z,62.10
2019-04-11T14:11:56.018Z,67.80
2019-04-11T14:14:28.241Z,67.60
2019-04-11T14:17:25.665Z,64.20
2019-04-11T14:20:12.379Z,63.10
2019-04-11T14:23:03.497Z,64.10
2019-04-11T14:25:51.987Z,64.00
2019-04-11T14:28:21.317Z,66.80
2019-04-11T14:31:01.795Z,68.80
2019-04-11T14:33:32.805Z,65.50
2019-04-11T14:36:32.772Z,64.30
2019-04-11T14:38:55.182Z,66.20
2019-04-11T14:41:43.277Z,66.20
2019-04-11T14:44:15.768Z,67.70
2019-04-11T14:46:57.503Z,67.80
2019-04-11T14:49:27.164Z,68.10
2019-04-11T14:52:17.320Z,65.70
2019-04-11T14:54:55.181Z,71.00
2019-04-11T14:57:55.434Z,69.40
2019-04-11T15:00:40.981Z,70.40
2019-04-11T15:03:16.268Z,70.40
2019-04-11T15:05:51.854Z,44.30
2019-04-11T15:08:47.433Z,45.90
2019-04-11T15:11:36.577Z,46.40
2019-04-11T15:14:17.675Z,45.50
2019-04-11T15:17:04.821Z,45.80
2019-04-11T15:19:33.665Z,44.40
2019-04-11T15:22:24.397Z,45.00
2019-04-11T15:24:56.501Z,45.30
2019-04-11T15:27:43.106Z,45.20
2019-04-11T15:30:16.716Z,45.60
2019-04-11T15:33:07.148Z,45.50
2019-04-11T15:35:36.185Z,48.20
2019-04-11T15:38:23.166Z,45.90
2019-04-11T15:40:54.851Z,49.30
2019-04-11T15:43:43.609Z,48.70
2019-04-11T15:46:17.024Z,49.60
2019-04-11T15:49:05.703Z,48.40
2019-04-11T15:51:39.306Z,44.90
2019-04-11T15:54:27.378Z,46.40
2019-04-11T15:57:03.193Z,47.10
2019-04-11T15:59:57.186Z,47.10
2019-04-11T16:02:48.079Z,47.90
2019-04-11T16:05:34.666Z,49.30
2019-04-11T16:08:17.213Z,48.90
2019-04-11T16:11:04.142Z,48.90
2019-04-11T16:13:41.027Z,50.60
2019-04-11T16:16:12.052Z,50.30
2019-04-11T16:18:59.818Z,51.30
2019-04-11T16:21:54.669Z,50.60
2019-04-11T16:24:28.284Z,50.50
2019-04-11T16:27:05.053Z,51.40
2019-04-11T16:29:44.875Z,51.70
2019-04-11T16:32:14.347Z,51.70
2019-04-11T16:34:58.884Z,52.70
2019-04-11T16:37:28.302Z,50.90
2019-04-11T16:40:16.206Z,52.70
2019-04-11T16:42:47.721Z,52.00
2019-04-11T16:45:34.233Z,52.60
2019-04-11T16:48:02.479Z,52.40
2019-04-11T16:50:31.827Z,51.70
2019-04-11T16:53:00.910Z,53.10
2019-04-11T16:55:29.915Z,53.90
2019-04-11T16:57:58.889Z,54.10
2019-04-11T17:00:27.868Z,53.00
2019-04-11T17:02:56.810Z,53.10
2019-04-11T17:05:26.804Z,53.90
2019-04-11T17:08:13.754Z,53.10
2019-04-11T17:11:00.893Z,53.50
2019-04-11T17:13:32.154Z,53.30
2019-04-11T17:16:00.943Z,53.50
2019-04-11T17:18:33.966Z,53.80
2019-04-11T17:21:00.643Z,55.50
2019-04-11T17:23:29.494Z,55.60
2019-04-11T17:25:58.405Z,54.90
2019-04-11T17:28:27.458Z,54.70
2019-04-11T17:30:56.535Z,56.80
2019-04-11T17:33:28.609Z,55.30
2019-04-11T17:35:56.302Z,55.50
2019-04-11T17:38:25.753Z,56.20
2019-04-11T17:40:54.581Z,56.30
2019-04-11T17:43:23.547Z,57.50
2019-04-11T17:45:52.539Z,56.70
2019-04-11T17:48:21.544Z,57.80
2019-04-11T17:50:50.510Z,57.60
2019-04-11T17:53:19.453Z,58.00
2019-04-11T17:55:48.838Z,57.50
2019-04-11T17:58:17.802Z,57.90
2019-04-11T18:00:52.326Z,59.60
2019-04-11T18:03:21.241Z,59.50
2019-04-11T18:05:50.109Z,59.30
2019-04-11T18:08:20.181Z,59.20
2019-04-11T18:10:49.844Z,59.20
2019-04-11T18:13:18.660Z,59.90
2019-04-11T18:15:47.614Z,61.00
2019-04-11T18:18:16.724Z,60.80
2019-04-11T18:20:46.147Z,61.40
2019-04-11T18:23:19.657Z,60.10
2019-04-11T18:25:46.094Z,61.30
2019-04-11T18:28:15.050Z,59.80
2019-04-11T18:30:45.022Z,59.90
2019-04-11T18:33:13.918Z,61.10
2019-04-11T18:35:42.746Z,62.60
2019-04-11T18:38:11.655Z,62.50
2019-04-11T18:40:40.877Z,63.50
2019-04-11T18:43:29.160Z,62.30
2019-04-11T18:45:58.231Z,63.00
2019-04-11T18:48:27.399Z,65.60
2019-04-11T18:50:56.350Z,67.90
2019-04-11T18:53:25.398Z,68.70
2019-04-11T18:55:54.457Z,69.40
2019-04-11T18:58:24.032Z,70.10
2019-04-11T19:00:53.477Z,70.60
2019-04-11T19:03:22.441Z,71.00
2019-04-11T19:05:51.452Z,69.80
2019-04-11T19:08:20.528Z,70.50
2019-04-11T19:10:49.583Z,72.10
2019-04-11T19:13:18.624Z,71.00
2019-04-11T19:15:47.694Z,72.30
2019-04-11T19:18:17.228Z,73.40
2019-04-11T19:20:50.036Z,72.50
2019-04-11T19:23:17.105Z,71.60
2019-04-11T19:25:46.141Z,72.80
2019-04-11T19:28:14.971Z,74.30
2019-04-11T19:30:44.335Z,73.10
2019-04-11T19:33:13.526Z,73.50
2019-04-11T19:38:29.768Z,75.20
2019-04-11T19:40:58.608Z,74.60
2019-04-11T19:43:27.618Z,77.80
2019-04-11T19:45:58.541Z,79.60
2019-04-11T19:48:27.326Z,79.50
2019-04-11T19:50:58.655Z,79.60
2019-04-11T19:53:26.906Z,79.20
2019-04-11T19:56:05.382Z,82.40
2019-04-11T19:58:34.833Z,82.90
2019-04-11T20:01:03.969Z,80.90
2019-04-11T20:03:33.018Z,83.80
2019-04-11T20:06:02.161Z,84.20
2019-04-11T20:08:30.990Z,85.60
2019-04-11T20:11:01.321Z,84.10
2019-04-11T20:13:32.218Z,86.00
2019-04-11T20:16:01.067Z,83.90
2019-04-11T20:18:29.981Z,85.60
2019-04-11T20:20:58.937Z,86.80
2019-04-11T20:23:27.978Z,88.70
2019-04-11T20:25:56.881Z,89.90
2019-04-11T20:28:26.899Z,90.40
2019-04-11T20:30:56.905Z,90.40
2019-04-11T20:33:27.320Z,91.00
2019-04-11T20:35:56.764Z,91.70
2019-04-11T20:38:25.672Z,91.70
2019-04-11T20:40:54.594Z,90.90
2019-04-11T20:43:25.453Z,91.20
2019-04-11T20:45:54.350Z,92.00
2019-04-11T20:48:23.299Z,91.30
2019-04-11T20:50:52.494Z,91.40
2019-04-11T20:53:21.574Z,92.00
2019-04-11T20:55:50.585Z,91.70
2019-04-11T20:58:27.210Z,91.90
2019-04-11T21:00:55.418Z,91.90
2019-04-11T21:03:20.741Z,92.60
2019-04-11T21:05:51.062Z,93.40
2019-04-11T21:08:19.994Z,93.90
2019-04-11T21:10:48.823Z,94.10
2019-04-11T21:13:17.628Z,94.00
2019-04-11T21:15:46.553Z,93.90
2019-04-11T21:18:15.437Z,94.10
2019-04-11T21:20:44.397Z,95.20
2019-04-11T21:23:23.990Z,97.80
2019-04-11T21:25:43.826Z,95.70
2019-04-11T21:28:12.846Z,95.40
2019-04-11T21:30:41.688Z,94.10
2019-04-11T21:33:11.750Z,95.00
2019-04-11T21:35:40.625Z,94.70
2019-04-11T21:38:09.430Z,96.00
2019-04-11T21:40:38.409Z,96.10
2019-04-11T21:43:07.400Z,96.40
2019-04-11T21:45:36.567Z,96.40
2019-04-11T21:48:06.863Z,96.00
2019-04-11T21:50:40.251Z,95.50
2019-04-11T21:53:06.741Z,98.30
2019-04-11T21:55:35.725Z,98.10
2019-04-11T21:58:04.738Z,99.90
2019-04-11T22:00:40.665Z,99.90
2019-04-11T22:03:11.277Z,99.90
2019-04-11T22:05:40.301Z,99.90
2019-04-11T22:08:10.021Z,99.90
2019-04-11T22:10:40.399Z,99.90
2019-04-11T22:13:10.201Z,99.90
2019-04-11T22:15:42.457Z,99.90
2019-04-11T22:18:15.882Z,99.90
2019-04-11T22:20:41.596Z,99.90
2019-04-11T22:23:10.526Z,99.90
2019-04-11T22:25:39.454Z,99.90
2019-04-11T22:28:08.281Z,99.90
2019-04-11T22:30:37.230Z,99.90
2019-04-11T22:33:21.527Z,99.90
2019-04-11T22:35:50.542Z,99.90
2019-04-11T22:38:19.543Z,99.90
2019-04-11T22:40:48.573Z,99.90
2019-04-11T22:43:24.386Z,99.90
2019-04-11T22:45:48.059Z,99.90
2019-04-11T22:48:16.989Z,99.90
2019-04-11T22:50:45.901Z,99.90
2019-04-11T22:53:14.696Z,99.90
2019-04-11T22:55:44.444Z,99.90
2019-04-11T22:58:14.675Z,99.90
2019-04-11T23:00:45.791Z,99.90
2019-04-11T23:03:24.682Z,99.90
2019-04-11T23:05:53.578Z,99.90
2019-04-11T23:08:22.386Z,99.90
2019-04-11T23:10:51.317Z,99.90
2019-04-11T23:13:20.297Z,99.90
2019-04-11T23:15:49.309Z,99.90
2019-04-11T23:18:18.112Z,99.90
2019-04-11T23:20:47.065Z,99.90
2019-04-11T23:23:15.887Z,99.90
2019-04-11T23:25:44.678Z,99.90
2019-04-11T23:28:15.859Z,99.90
2019-04-11T23:30:44.345Z,99.90
2019-04-11T23:33:13.254Z,99.90
2019-04-11T23:35:42.166Z,99.90
2019-04-11T23:38:11.105Z,99.90
2019-04-11T23:40:39.905Z,99.90
2019-04-11T23:43:08.771Z,99.90
2019-04-11T23:45:37.652Z,99.90
2019-04-11T23:48:06.567Z,99.90
2019-04-11T23:50:35.487Z,99.90
2019-04-11T23:53:04.498Z,99.90
2019-04-11T23:55:33.528Z,99.90
2019-04-11T23:58:02.513Z,99.90
